Time;durP1;ratioP1;P1;durP2;ratioP2;P2;SDS_P1;SDS_P2;PMS_P1;PMS_P2;Temp;Humidity;BMP_temperature;BMP_pressure;BME280_temperature;BME280_humidity;BME280_pressure;Samples;Min_cycle;Max_cycle;Signal;HPM_P1;HPM_P2
2022/01/26 00:00:06;;;;;;;11.68;10.48;;;17.70;52.20;;;;;;5054777;28;20186;-59
2022/01/26 00:08:00;;;;;;;11.82;10.73;;;17.60;52.30;;;;;;5054613;28;20178;-59
2022/01/26 00:10:25;;;;;;;11.43;10.40;;;17.60;52.20;;;;;;5053389;28;20525;-59
2022/01/26 00:12:51;;;;;;;12.05;10.85;;;17.60;52.20;;;;;;5054242;28;20171;-59
2022/01/26 00:15:16;;;;;;;11.68;10.48;;;17.60;52.20;;;;;;5054478;28;20175;-59
2022/01/26 00:17:42;;;;;;;12.25;11.00;;;17.60;52.30;;;;;;5053417;28;20316;-59
2022/01/26 00:20:20;;;;;;;11.43;10.25;;;17.50;52.20;;;;;;5054309;28;20584;-59
2022/01/26 00:38:39;;;;;;;12.23;11.02;;;17.40;52.30;;;;;;5052776;28;20174;-58
2022/01/26 00:41:08;;;;;;;12.57;11.38;;;17.40;52.20;;;;;;5054050;28;20265;-59
2022/01/26 00:43:34;;;;;;;12.27;11.07;;;17.40;52.10;;;;;;5053376;28;20225;-58
2022/01/26 00:46:01;;;;;;;12.57;11.27;;;17.40;52.20;;;;;;5052969;28;20179;-58
2022/01/26 00:48:30;;;;;;;11.85;10.65;;;17.40;52.20;;;;;;5053278;28;20771;-58
2022/01/26 00:50:59;;;;;;;11.98;10.77;;;17.40;52.30;;;;;;5053493;28;20537;-58
2022/01/26 00:53:30;;;;;;;12.13;11.00;;;17.40;52.30;;;;;;5052539;28;20179;-58
2022/01/26 00:55:56;;;;;;;11.90;10.80;;;17.30;52.20;;;;;;5053547;28;20172;-58
2022/01/26 00:58:21;;;;;;;12.50;11.30;;;17.40;52.40;;;;;;5053278;28;20657;-59
2022/01/26 01:00:47;;;;;;;12.23;11.02;;;17.30;52.30;;;;;;5052517;28;20170;-58
2022/01/26 01:03:12;;;;;;;13.30;11.93;;;17.30;52.30;;;;;;5053088;28;20219;-59
2022/01/26 01:05:53;;;;;;;12.75;11.25;;;17.30;52.10;;;;;;5053127;28;20175;-58
2022/01/26 01:08:22;;;;;;;12.63;11.43;;;17.30;52.30;;;;;;5052839;28;20202;-59
2022/01/26 01:10:49;;;;;;;14.15;12.65;;;17.30;52.30;;;;;;5053418;28;20255;-59
2022/01/26 01:13:18;;;;;;;12.88;11.68;;;17.30;52.10;;;;;;5051875;28;20175;-60
2022/01/26 01:15:44;;;;;;;11.88;10.68;;;17.20;52.20;;;;;;5052959;28;20182;-59
2022/01/26 01:18:17;;;;;;;13.02;11.68;;;17.20;52.20;;;;;;5053349;28;20175;-59
2022/01/26 01:23:46;;;;;;;12.30;11.00;;;17.20;52.20;;;;;;5052835;28;20298;-59
2022/01/26 01:26:44;;;;;;;13.15;11.80;;;17.20;52.00;;;;;;5053263;28;20175;-60
2022/01/26 01:29:26;;;;;;;12.40;11.10;;;17.20;52.20;;;;;;5052316;28;20213;-59
2022/01/26 01:31:54;;;;;;;12.75;11.50;;;17.20;52.10;;;;;;5052960;28;20695;-58
2022/01/26 01:34:22;;;;;;;12.65;11.40;;;17.10;52.10;;;;;;5052037;28;20185;-59
2022/01/26 01:36:53;;;;;;;12.88;11.68;;;17.10;52.10;;;;;;5052810;28;20171;-58
2022/01/26 01:39:19;;;;;;;12.93;11.63;;;17.10;52.20;;;;;;5053117;28;20533;-58
2022/01/26 01:41:45;;;;;;;11.52;10.45;;;17.10;52.20;;;;;;5052038;28;20198;-58
2022/01/26 01:44:11;;;;;;;12.57;11.35;;;17.10;52.30;;;;;;5052953;28;20215;-59
2022/01/26 01:46:38;;;;;;;12.55;11.40;;;17.10;52.20;;;;;;5052185;28;20590;-58
2022/01/26 01:49:04;;;;;;;12.30;11.10;;;17.10;52.30;;;;;;5052074;28;20236;-59
2022/01/26 01:51:36;;;;;;;13.43;11.65;;;17.10;52.30;;;;;;5052220;28;20242;-58
2022/01/26 01:54:03;;;;;;;12.68;11.35;;;17.10;52.30;;;;;;5052708;28;20178;-58
2022/01/26 01:56:29;;;;;;;12.45;11.25;;;17.00;52.20;;;;;;5051628;28;20182;-59
2022/01/26 01:58:56;;;;;;;12.65;11.45;;;17.00;52.40;;;;;;5052536;28;20171;-59
2022/01/26 02:01:22;;;;;;;12.68;11.40;;;17.00;52.40;;;;;;5052015;28;20642;-58
2022/01/26 02:03:47;;;;;;;12.02;10.82;;;17.00;52.40;;;;;;5051768;28;20218;-59
2022/01/26 02:06:13;;;;;;;13.13;11.82;;;17.00;52.40;;;;;;5052596;28;20175;-58
2022/01/26 02:08:41;;;;;;;12.70;11.43;;;17.00;52.10;;;;;;5052304;28;20179;-58
2022/01/26 02:11:09;;;;;;;12.82;11.63;;;17.00;52.30;;;;;;5051924;28;20254;-59
2022/01/26 02:13:43;;;;;;;13.18;11.88;;;17.00;52.20;;;;;;5052025;28;20179;-59
2022/01/26 02:16:21;;;;;;;12.52;11.32;;;17.00;52.30;;;;;;5052629;28;20174;-59
2022/01/26 02:21:31;;;;;;;12.93;11.73;;;17.00;52.20;;;;;;5052314;28;20182;-59
2022/01/26 02:57:07;;;;;;;11.95;10.68;;;16.80;52.00;;;;;;5051852;28;20167;-59
2022/01/26 03:04:27;;;;;;;12.13;11.02;;;16.80;52.10;;;;;;5051653;28;20248;-58
2022/01/26 03:07:03;;;;;;;11.30;10.20;;;16.80;52.10;;;;;;5051060;28;20233;-58
2022/01/26 03:09:35;;;;;;;12.15;11.02;;;16.80;52.20;;;;;;5051628;28;20183;-59
2022/01/26 03:12:02;;;;;;;12.13;10.93;;;16.80;52.10;;;;;;5051621;28;20248;-58
2022/01/26 03:14:39;;;;;;;12.55;11.43;;;16.80;52.20;;;;;;5050736;28;20593;-59
2022/01/26 03:17:31;;;;;;;11.60;10.45;;;16.70;52.10;;;;;;5051836;28;20262;-59
2022/01/26 03:20:02;;;;;;;11.70;10.55;;;16.70;52.10;;;;;;5050877;28;20175;-58
2022/01/26 03:28:19;;;;;;;12.23;11.05;;;16.70;52.20;;;;;;5050877;28;20179;-58
2022/01/26 03:35:58;;;;;;;11.48;10.48;;;16.70;52.00;;;;;;5050955;28;20565;-58
2022/01/26 03:38:29;;;;;;;12.00;10.82;;;16.70;51.90;;;;;;5054778;28;20175;-58
2022/01/26 03:41:12;;;;;;;12.45;11.25;;;16.70;51.90;;;;;;5054502;28;20513;-58
2022/01/26 03:43:38;;;;;;;12.73;11.52;;;16.60;51.90;;;;;;5054753;28;20310;-59
2022/01/26 03:46:03;;;;;;;12.88;11.68;;;16.60;51.80;;;;;;5054779;28;20270;-59
2022/01/26 03:48:29;;;;;;;11.85;10.65;;;16.60;51.90;;;;;;5053715;28;20266;-58
2022/01/26 03:50:54;;;;;;;12.73;11.52;;;16.60;51.90;;;;;;5054375;28;20222;-61
2022/01/26 03:53:20;;;;;;;11.88;10.68;;;16.60;51.90;;;;;;5054322;28;20172;-60
2022/01/26 03:55:46;;;;;;;12.63;11.13;;;16.60;51.90;;;;;;5053436;28;20661;-60
2022/01/26 03:58:12;;;;;;;11.70;10.60;;;16.60;51.90;;;;;;5054012;28;20183;-60
2022/01/26 04:00:37;;;;;;;12.18;11.00;;;16.60;52.00;;;;;;5053935;28;20680;-61
2022/01/26 04:03:03;;;;;;;12.35;11.15;;;16.60;52.00;;;;;;5053492;28;20253;-60
2022/01/26 04:05:29;;;;;;;12.48;11.18;;;16.50;52.10;;;;;;5053957;28;20261;-60
2022/01/26 04:07:59;;;;;;;11.32;10.23;;;16.50;52.00;;;;;;5054161;28;20202;-60
2022/01/26 04:13:13;;;;;;;12.70;11.40;;;16.60;52.10;;;;;;5043948;28;20701;-61
2022/01/26 04:15:39;;;;;;;12.90;11.60;;;16.50;51.90;;;;;;5053728;28;20274;-60
2022/01/26 04:18:08;;;;;;;12.63;11.32;;;16.60;51.90;;;;;;5053100;28;20173;-60
2022/01/26 04:20:39;;;;;;;13.63;12.30;;;16.50;52.00;;;;;;5053547;28;20179;-60
2022/01/26 04:23:20;;;;;;;13.20;11.80;;;16.50;51.90;;;;;;5053721;28;20237;-61
2022/01/26 04:25:47;;;;;;;12.40;11.20;;;16.50;52.00;;;;;;5053880;28;20203;-60
2022/01/26 04:28:20;;;;;;;12.45;11.23;;;16.50;52.00;;;;;;5053915;28;20255;-60
2022/01/26 04:30:45;;;;;;;12.90;11.63;;;16.50;52.00;;;;;;5052871;28;20179;-60
2022/01/26 04:33:11;;;;;;;12.77;11.48;;;16.50;52.00;;;;;;5053656;28;20225;-61
2022/01/26 04:35:42;;;;;;;12.63;11.45;;;16.50;52.10;;;;;;5053135;28;20585;-60
2022/01/26 04:40:54;;;;;;;11.95;10.80;;;16.50;52.00;;;;;;5053459;28;20189;-60
2022/01/26 04:43:24;;;;;;;13.73;12.43;;;16.40;51.90;;;;;;5053359;28;20264;-60
2022/01/26 04:45:50;;;;;;;12.48;11.20;;;16.40;51.90;;;;;;5052642;28;20689;-60
2022/01/26 04:48:15;;;;;;;12.27;11.07;;;16.50;52.00;;;;;;5052810;28;20175;-60
2022/01/26 04:50:41;;;;;;;13.48;12.07;;;16.40;51.90;;;;;;5052937;28;20543;-60
2022/01/26 04:53:06;;;;;;;13.57;12.18;;;16.40;52.00;;;;;;5052629;28;20186;-60
2022/01/26 04:55:32;;;;;;;13.10;11.80;;;16.40;51.90;;;;;;5052926;28;20198;-60
2022/01/26 04:57:57;;;;;;;14.05;12.65;;;16.40;51.90;;;;;;5053179;28;20677;-61
2022/01/26 05:00:23;;;;;;;13.95;12.57;;;16.40;51.90;;;;;;5052363;28;20167;-60
2022/01/26 05:02:48;;;;;;;12.65;11.45;;;16.40;51.90;;;;;;5053060;28;20218;-60
2022/01/26 05:05:14;;;;;;;14.15;12.75;;;16.40;51.90;;;;;;5053175;28;20650;-60
2022/01/26 05:07:39;;;;;;;14.73;12.57;;;16.30;51.90;;;;;;5052256;28;20649;-59
2022/01/26 05:10:05;;;;;;;14.60;13.05;;;16.30;51.90;;;;;;5053311;28;20179;-60
2022/01/26 05:12:32;;;;;;;13.52;12.20;;;16.30;51.80;;;;;;5051898;28;20567;-60
2022/01/26 05:14:57;;;;;;;13.88;12.55;;;16.30;51.90;;;;;;5052957;28;20175;-60
2022/01/26 05:17:24;;;;;;;14.35;12.85;;;16.30;51.90;;;;;;5052844;28;20171;-60
2022/01/26 05:19:54;;;;;;;14.98;12.35;;;16.30;51.90;;;;;;5052426;28;20202;-60
2022/01/26 05:22:20;;;;;;;14.43;12.95;;;16.30;51.90;;;;;;5052513;28;20206;-60
2022/01/26 05:24:47;;;;;;;15.02;13.45;;;16.30;51.80;;;;;;5052830;28;20171;-60
2022/01/26 05:27:13;;;;;;;14.32;12.82;;;16.30;51.80;;;;;;5052108;28;20263;-60
2022/01/26 05:29:38;;;;;;;14.77;13.27;;;16.30;51.90;;;;;;5052352;28;20201;-60
2022/01/26 05:32:04;;;;;;;14.48;12.98;;;16.30;51.80;;;;;;5052891;28;20216;-59
2022/01/26 05:34:29;;;;;;;15.10;13.57;;;16.20;51.80;;;;;;5051468;28;20183;-59
2022/01/26 05:36:55;;;;;;;14.10;12.68;;;16.20;51.70;;;;;;5052617;28;20175;-59
2022/01/26 05:39:20;;;;;;;15.43;13.88;;;16.20;51.80;;;;;;5052436;28;20195;-59
2022/01/26 05:41:46;;;;;;;14.50;13.07;;;16.30;51.80;;;;;;5051780;28;20270;-60
2022/01/26 05:44:11;;;;;;;14.65;13.18;;;16.20;51.80;;;;;;5052172;28;20260;-59
2022/01/26 05:46:42;;;;;;;15.45;13.60;;;16.30;51.90;;;;;;5052206;28;20167;-59
2022/01/26 05:49:08;;;;;;;15.18;13.68;;;16.20;51.80;;;;;;5052112;28;20182;-59
2022/01/26 05:51:33;;;;;;;15.10;13.52;;;16.30;51.80;;;;;;5051955;28;20756;-59
2022/01/26 05:53:59;;;;;;;14.55;13.07;;;16.20;51.80;;;;;;5052545;28;20583;-59
2022/01/26 05:56:25;;;;;;;16.35;14.68;;;16.20;51.80;;;;;;5051233;28;20167;-60
2022/01/26 05:58:50;;;;;;;15.18;13.57;;;16.20;51.80;;;;;;5051759;28;20659;-60
2022/01/26 06:01:16;;;;;;;15.48;13.90;;;16.20;51.80;;;;;;5052051;28;20567;-59
2022/01/26 06:03:42;;;;;;;15.80;14.20;;;16.20;51.80;;;;;;5051382;28;20221;-59
2022/01/26 06:06:08;;;;;;;15.35;13.77;;;16.20;51.70;;;;;;5052539;28;20174;-60
2022/01/26 06:08:34;;;;;;;15.73;14.05;;;16.20;52.10;;;;;;5051986;28;20175;-59
2022/01/26 06:11:01;;;;;;;15.65;14.00;;;16.20;51.70;;;;;;5051247;28;20174;-60
2022/01/26 06:13:27;;;;;;;14.60;13.10;;;16.10;51.70;;;;;;5051556;28;20182;-60
2022/01/26 06:15:52;;;;;;;16.77;15.00;;;16.10;51.70;;;;;;5051416;28;20187;-60
2022/01/26 06:18:18;;;;;;;16.48;14.68;;;16.10;51.70;;;;;;5052139;28;20174;-60
2022/01/26 06:20:43;;;;;;;16.67;14.88;;;16.10;51.60;;;;;;5051741;28;20282;-60
2022/01/26 06:23:09;;;;;;;16.75;15.00;;;16.10;51.70;;;;;;5051170;28;20207;-60
2022/01/26 06:25:34;;;;;;;16.33;14.73;;;16.10;51.60;;;;;;5051457;28;20266;-60
2022/01/26 06:28:05;;;;;;;17.40;15.15;;;16.10;51.70;;;;;;5051696;28;20626;-60
2022/01/26 06:30:31;;;;;;;16.65;14.82;;;16.10;51.60;;;;;;5051120;28;20171;-57
2022/01/26 06:32:56;;;;;;;17.88;14.88;;;16.10;51.60;;;;;;5051831;28;20197;-60
2022/01/26 06:35:22;;;;;;;17.40;15.45;;;16.00;51.70;;;;;;5051887;28;20171;-59
2022/01/26 06:37:48;;;;;;;16.95;14.77;;;16.00;51.60;;;;;;5051344;28;20676;-59
2022/01/26 06:40:13;;;;;;;16.60;14.80;;;16.00;51.70;;;;;;5052000;28;20236;-60
2022/01/26 06:42:52;;;;;;;17.98;16.05;;;16.00;51.60;;;;;;5051566;28;20742;-59
2022/01/26 06:45:21;;;;;;;17.88;15.60;;;16.00;51.60;;;;;;5051288;28;20270;-60
2022/01/26 06:50:21;;;;;;;17.63;15.73;;;16.00;51.70;;;;;;5051744;28;20182;-59
2022/01/26 06:52:47;;;;;;;17.65;15.75;;;16.00;51.70;;;;;;5051144;28;20182;-59
2022/01/26 06:55:13;;;;;;;20.50;17.05;;;16.00;51.70;;;;;;5051888;28;20554;-60
2022/01/26 06:57:39;;;;;;;17.63;15.70;;;16.00;51.60;;;;;;5051438;28;21021;-59
2022/01/26 07:00:06;;;;;;;17.80;15.90;;;16.00;51.60;;;;;;5050972;28;20172;-60
2022/01/26 07:02:31;;;;;;;18.20;16.30;;;16.00;51.70;;;;;;5051101;28;20203;-59
2022/01/26 07:04:56;;;;;;;18.55;16.58;;;16.00;51.70;;;;;;5050684;28;20194;-59
2022/01/26 07:07:22;;;;;;;17.02;15.23;;;16.00;51.70;;;;;;5051084;28;20171;-59
2022/01/26 07:09:47;;;;;;;16.63;14.75;;;16.00;51.70;;;;;;5051371;28;20179;-59
2022/01/26 07:12:16;;;;;;;17.30;15.50;;;16.10;51.70;;;;;;5052915;28;20237;-60
2022/01/26 07:22:54;;;;;;;14.98;13.38;;;16.30;51.90;;;;;;5055002;28;20310;-60
2022/01/26 07:25:20;;;;;;;14.85;13.25;;;16.40;51.80;;;;;;5054664;28;20262;-61
2022/01/26 07:27:46;;;;;;;15.32;13.73;;;16.50;51.70;;;;;;5054156;28;20173;-59
2022/01/26 07:30:11;;;;;;;15.07;13.60;;;16.50;51.60;;;;;;5054823;28;20206;-60
2022/01/26 07:32:37;;;;;;;14.57;13.07;;;16.60;51.50;;;;;;5054239;28;20229;-60
2022/01/26 07:35:04;;;;;;;14.57;13.15;;;16.80;51.30;;;;;;5054385;28;20654;-59
2022/01/26 07:37:29;;;;;;;14.88;13.27;;;17.00;51.10;;;;;;5054448;28;20254;-59
2022/01/26 07:40:06;;;;;;;14.98;13.38;;;17.20;50.80;;;;;;5054767;28;20263;-59
2022/01/26 07:42:32;;;;;;;13.00;11.70;;;17.30;50.50;;;;;;5054271;28;20252;-60
2022/01/26 07:44:58;;;;;;;13.13;11.77;;;17.40;50.30;;;;;;5054394;28;20175;-59
2022/01/26 07:47:23;;;;;;;13.50;12.20;;;17.40;50.30;;;;;;5053730;28;20171;-59
2022/01/26 07:49:52;;;;;;;13.57;12.27;;;17.40;50.20;;;;;;5054644;28;20198;-59
2022/01/26 07:52:18;;;;;;;14.23;12.85;;;17.40;50.20;;;;;;5054118;28;20318;-59
2022/01/26 07:54:45;;;;;;;13.75;12.38;;;17.50;50.10;;;;;;5053371;28;20193;-60
2022/01/26 07:57:11;;;;;;;14.13;12.73;;;17.40;50.20;;;;;;5054334;28;20175;-60
2022/01/26 07:59:36;;;;;;;12.98;11.75;;;17.30;50.40;;;;;;5053780;28;20187;-60
2022/01/26 08:02:02;;;;;;;13.70;12.40;;;17.30;50.50;;;;;;5053636;28;20172;-60
2022/01/26 08:04:28;;;;;;;13.73;12.43;;;17.30;50.50;;;;;;5053946;28;20297;-60
2022/01/26 08:06:53;;;;;;;12.68;11.48;;;17.30;50.60;;;;;;5054025;28;20175;-66
2022/01/26 08:09:19;;;;;;;13.52;11.68;;;17.40;50.60;;;;;;5053125;28;20696;-66
2022/01/26 08:11:44;;;;;;;13.18;11.88;;;17.50;50.60;;;;;;5053533;28;20182;-63
2022/01/26 08:14:10;;;;;;;13.32;11.60;;;17.60;50.60;;;;;;5054010;28;20178;-64
2022/01/26 08:16:36;;;;;;;13.77;12.02;;;17.90;50.30;;;;;;5053089;28;20175;-61
2022/01/26 08:19:01;;;;;;;15.52;11.20;;;18.00;50.20;;;;;;5054065;28;20175;-67
2022/01/26 08:21:27;;;;;;;14.32;12.75;;;18.10;50.40;;;;;;5052684;28;20179;-68
2022/01/26 08:24:01;;;;;;;17.67;11.70;;;18.20;50.40;;;;;;5053441;28;20315;-62
2022/01/26 08:26:36;;;;;;;18.27;12.13;;;18.30;50.30;;;;;;5054262;28;20187;-62
2022/01/26 08:29:02;;;;;;;13.13;11.50;;;18.50;50.10;;;;;;5053937;28;20678;-63
2022/01/26 08:31:28;;;;;;;13.90;11.15;;;18.40;50.00;;;;;;5052827;28;20258;-63
2022/01/26 08:33:56;;;;;;;14.60;11.77;;;18.40;50.10;;;;;;5053720;28;20210;-64
2022/01/26 08:36:22;;;;;;;12.50;10.88;;;18.50;50.20;;;;;;5052819;28;20266;-64
2022/01/26 08:38:47;;;;;;;12.68;11.25;;;18.50;50.20;;;;;;5053992;28;20262;-63
2022/01/26 08:41:13;;;;;;;12.82;11.25;;;18.40;50.10;;;;;;5053654;28;20171;-64
2022/01/26 08:43:38;;;;;;;14.48;11.75;;;18.50;50.10;;;;;;5052824;28;20262;-65
2022/01/26 08:46:04;;;;;;;12.38;11.18;;;18.50;50.10;;;;;;5053580;28;20244;-62
2022/01/26 08:48:29;;;;;;;12.15;10.77;;;18.60;50.10;;;;;;5053540;28;20233;-62
2022/01/26 08:50:55;;;;;;;12.27;10.98;;;18.50;50.30;;;;;;5052579;28;20552;-62
2022/01/26 08:53:24;;;;;;;12.55;11.25;;;18.50;50.20;;;;;;5053102;28;20183;-64
2022/01/26 08:55:51;;;;;;;12.73;11.07;;;18.60;50.20;;;;;;5053328;28;20175;-63
2022/01/26 08:58:18;;;;;;;14.43;11.45;;;18.60;50.30;;;;;;5053128;28;20183;-61
2022/01/26 09:00:43;;;;;;;12.30;10.63;;;18.60;50.50;;;;;;5053298;28;20175;-65
2022/01/26 09:03:09;;;;;;;11.82;10.63;;;18.50;50.40;;;;;;5053647;28;20669;-64
2022/01/26 09:05:34;;;;;;;13.35;10.95;;;18.40;50.50;;;;;;5052597;28;20175;-61
2022/01/26 09:08:00;;;;;;;15.73;11.20;;;18.40;50.60;;;;;;5053438;28;20176;-62
2022/01/26 09:10:28;;;;;;;16.80;12.10;;;18.20;50.80;;;;;;5052732;28;20179;-66
2022/01/26 09:12:53;;;;;;;12.82;11.50;;;18.20;51.00;;;;;;5052729;28;20482;-66
2022/01/26 09:15:26;;;;;;;13.25;11.60;;;18.10;51.10;;;;;;5053504;28;20179;-67
2022/01/26 09:17:51;;;;;;;14.50;12.07;;;18.20;51.20;;;;;;5053858;28;20179;-66
2022/01/26 09:20:17;;;;;;;14.77;11.68;;;18.20;51.10;;;;;;5052647;28;20225;-66
2022/01/26 09:22:42;;;;;;;13.18;10.75;;;18.10;51.10;;;;;;5053009;28;20249;-66
2022/01/26 09:25:08;;;;;;;13.27;11.50;;;18.10;51.10;;;;;;5053198;28;20178;-66
2022/01/26 09:27:34;;;;;;;13.68;11.70;;;18.00;51.20;;;;;;5052025;28;20658;-66
2022/01/26 09:30:00;;;;;;;16.05;12.50;;;17.90;51.40;;;;;;5053333;28;20179;-66
2022/01/26 09:32:25;;;;;;;13.35;11.63;;;17.90;51.50;;;;;;5052875;28;20174;-67
2022/01/26 09:34:51;;;;;;;13.93;11.40;;;17.70;51.60;;;;;;5051756;28;20187;-67
2022/01/26 09:37:17;;;;;;;14.02;11.88;;;17.70;51.70;;;;;;5052883;28;20236;-68
2022/01/26 09:39:45;;;;;;;13.05;11.48;;;17.70;51.80;;;;;;5051725;28;20171;-67
2022/01/26 09:42:11;;;;;;;13.13;11.73;;;17.60;51.90;;;;;;5052592;28;20210;-67
2022/01/26 09:44:36;;;;;;;12.75;11.45;;;17.60;51.90;;;;;;5052338;28;20617;-67
2022/01/26 09:47:03;;;;;;;13.48;12.07;;;17.60;51.90;;;;;;5052178;28;20176;-66
2022/01/26 09:49:33;;;;;;;13.05;11.50;;;17.60;51.80;;;;;;5052297;28;20262;-67
2022/01/26 09:52:01;;;;;;;16.27;12.63;;;17.70;51.90;;;;;;5052351;28;20227;-66
2022/01/26 09:54:30;;;;;;;13.75;12.32;;;17.70;51.80;;;;;;5051621;28;20814;-67
2022/01/26 09:57:00;;;;;;;13.90;12.48;;;17.70;51.80;;;;;;5052841;28;20182;-67
2022/01/26 09:59:26;;;;;;;14.07;12.15;;;17.70;51.70;;;;;;5052165;28;20626;-67
2022/01/26 10:01:51;;;;;;;13.40;11.88;;;17.70;52.30;;;;;;5051912;28;20187;-67
2022/01/26 10:04:20;;;;;;;14.05;12.20;;;17.80;51.60;;;;;;5052532;28;20207;-67
2022/01/26 10:06:49;;;;;;;13.02;11.70;;;17.90;51.60;;;;;;5052334;28;20536;-66
2022/01/26 10:17:31;;;;;;;12.25;10.85;;;18.00;51.40;;;;;;5052280;28;20227;-67
2022/01/26 10:19:58;;;;;;;12.65;10.82;;;18.00;51.40;;;;;;5052596;28;20251;-66
2022/01/26 10:22:28;;;;;;;12.40;11.05;;;18.00;51.40;;;;;;5051286;28;20545;-66
2022/01/26 10:25:07;;;;;;;12.85;11.27;;;18.10;51.30;;;;;;5052311;28;20250;-66
2022/01/26 10:27:40;;;;;;;12.98;11.68;;;18.10;51.20;;;;;;5051144;28;20553;-66
2022/01/26 10:30:06;;;;;;;12.32;10.55;;;18.10;51.20;;;;;;5051299;28;20186;-66
2022/01/26 10:32:35;;;;;;;12.50;11.27;;;18.20;51.10;;;;;;5051560;28;20171;-67
2022/01/26 10:35:01;;;;;;;12.95;10.52;;;18.20;51.00;;;;;;5051815;28;20183;-67
2022/01/26 10:37:27;;;;;;;11.63;10.43;;;18.20;51.00;;;;;;5050533;28;20668;-68
2022/01/26 10:39:56;;;;;;;11.35;10.10;;;18.20;51.00;;;;;;5051668;28;20183;-67
2022/01/26 10:42:24;;;;;;;11.50;10.30;;;18.20;51.00;;;;;;5051172;28;20182;-67
2022/01/26 10:45:14;;;;;;;11.73;10.52;;;18.20;50.80;;;;;;5051091;28;20174;-68
2022/01/26 10:47:47;;;;;;;11.25;10.05;;;18.30;50.90;;;;;;5054147;28;20229;-67
2022/01/26 10:53:07;;;;;;;11.35;10.25;;;18.30;50.90;;;;;;5055849;28;20225;-66
2022/01/26 10:55:35;;;;;;;11.65;10.45;;;18.30;50.90;;;;;;5055413;28;20179;-67
2022/01/26 10:58:01;;;;;;;11.63;10.43;;;18.30;50.70;;;;;;5053748;28;20504;-67
2022/01/26 11:00:26;;;;;;;11.75;9.98;;;18.30;50.80;;;;;;5055041;28;20181;-67
2022/01/26 11:02:57;;;;;;;10.48;9.48;;;18.30;50.90;;;;;;5054266;28;20207;-67
2022/01/26 11:05:23;;;;;;;11.35;10.15;;;18.30;50.70;;;;;;5053357;28;20705;-67
2022/01/26 11:07:49;;;;;;;11.55;10.00;;;18.30;50.70;;;;;;5055465;28;20206;-66
2022/01/26 11:10:14;;;;;;;10.32;9.25;;;18.30;50.80;;;;;;5054401;28;20630;-67
2022/01/26 11:12:40;;;;;;;11.23;10.00;;;18.40;50.90;;;;;;5053086;28;20178;-68
2022/01/26 11:15:08;;;;;;;11.45;10.25;;;18.40;50.80;;;;;;5055287;28;20175;-63
2022/01/26 11:17:43;;;;;;;11.45;10.30;;;18.30;50.70;;;;;;5054707;28;20171;-64
2022/01/26 11:20:33;;;;;;;10.63;9.52;;;18.40;50.80;;;;;;5054496;28;20207;-62
2022/01/26 11:23:00;;;;;;;13.75;9.50;;;18.40;50.80;;;;;;5055051;28;20720;-62
2022/01/26 11:25:30;;;;;;;10.55;8.32;;;18.40;50.90;;;;;;5054050;28;20187;-63
2022/01/26 11:27:56;;;;;;;10.05;9.05;;;18.40;50.80;;;;;;5054736;28;20178;-62
2022/01/26 11:30:27;;;;;;;13.65;8.60;;;18.40;50.70;;;;;;5055012;28;20249;-61
2022/01/26 11:32:56;;;;;;;10.38;8.93;;;18.40;50.70;;;;;;5054319;28;20179;-63
2022/01/26 11:35:22;;;;;;;10.50;9.40;;;18.40;50.80;;;;;;5054673;28;20175;-63
2022/01/26 11:38:02;;;;;;;10.27;9.20;;;18.30;50.90;;;;;;5054674;28;20185;-63
2022/01/26 11:46:11;;;;;;;10.90;8.88;;;18.10;51.50;;;;;;5054500;28;20225;-63
2022/01/26 11:48:37;;;;;;;10.98;9.10;;;18.00;51.50;;;;;;5054046;28;20262;-62
2022/01/26 11:51:03;;;;;;;9.90;8.75;;;18.00;51.60;;;;;;5054452;28;20326;-61
2022/01/26 11:53:28;;;;;;;9.60;8.52;;;18.10;51.60;;;;;;5053460;28;20598;-61
2022/01/26 11:56:07;;;;;;;10.50;9.40;;;18.10;51.60;;;;;;5054200;28;20175;-62
2022/01/26 11:58:44;;;;;;;8.20;7.22;;;18.10;51.60;;;;;;5053698;28;20187;-63
2022/01/26 12:01:20;;;;;;;10.93;8.82;;;18.10;51.60;;;;;;5053501;28;20171;-65
2022/01/26 12:04:02;;;;;;;10.38;8.07;;;18.10;51.50;;;;;;5054320;28;20301;-64
2022/01/26 12:06:40;;;;;;;10.80;8.57;;;18.10;51.50;;;;;;5053965;28;20258;-64
2022/01/26 12:09:07;;;;;;;11.10;8.88;;;18.10;51.50;;;;;;5053745;28;20186;-64
2022/01/26 12:11:32;;;;;;;9.75;8.75;;;18.10;51.50;;;;;;5053739;28;20553;-63
2022/01/26 12:13:59;;;;;;;8.73;7.82;;;18.10;51.60;;;;;;5054216;28;20634;-64
2022/01/26 12:16:32;;;;;;;9.43;8.43;;;18.00;51.70;;;;;;5053144;28;20549;-64
2022/01/26 12:19:22;;;;;;;9.43;8.45;;;18.00;51.70;;;;;;5054149;28;20175;-63
2022/01/26 12:33:27;;;;;;;11.32;8.48;;;18.00;51.90;;;;;;5041593;28;20217;-64
2022/01/26 12:35:58;;;;;;;9.65;7.93;;;17.90;51.80;;;;;;5055420;28;20289;-64
2022/01/26 12:38:41;;;;;;;9.05;7.75;;;17.90;51.80;;;;;;5068846;28;20208;-64
2022/01/26 12:43:58;;;;;;;9.18;7.22;;;17.80;51.90;;;;;;5072879;28;20275;-64
2022/01/26 12:46:28;;;;;;;10.77;7.78;;;17.80;51.90;;;;;;5062221;28;20285;-64
2022/01/26 12:48:55;;;;;;;9.35;8.00;;;17.80;51.90;;;;;;5053594;28;20178;-64
2022/01/26 12:51:21;;;;;;;9.52;7.53;;;17.90;51.90;;;;;;5052133;28;20597;-63
2022/01/26 12:53:57;;;;;;;9.10;7.78;;;17.90;51.90;;;;;;5053462;28;20178;-63
2022/01/26 12:56:27;;;;;;;10.93;7.45;;;17.90;51.80;;;;;;5053119;28;20183;-63
2022/01/26 12:59:07;;;;;;;8.85;7.57;;;17.80;51.80;;;;;;5052611;28;20193;-63
2022/01/26 13:01:33;;;;;;;9.05;7.38;;;17.80;51.80;;;;;;5052694;28;20221;-64
2022/01/26 13:04:00;;;;;;;11.70;7.63;;;17.80;51.90;;;;;;5067526;28;20237;-63
2022/01/26 13:06:27;;;;;;;8.27;7.47;;;17.70;51.80;;;;;;5072932;28;20193;-63
2022/01/26 13:08:57;;;;;;;10.30;7.57;;;17.80;51.90;;;;;;5072295;28;20194;-63
2022/01/26 13:11:23;;;;;;;7.40;6.70;;;17.80;51.90;;;;;;5072094;28;20224;-63
2022/01/26 13:13:49;;;;;;;8.90;7.15;;;17.80;51.90;;;;;;5072993;28;20166;-63
2022/01/26 13:16:16;;;;;;;8.85;7.63;;;17.80;51.90;;;;;;5072702;28;20227;-62
2022/01/26 13:19:18;;;;;;;10.95;7.75;;;17.80;51.90;;;;;;5072010;28;20183;-67
2022/01/26 13:24:32;;;;;;;9.48;7.78;;;17.70;51.80;;;;;;5073357;28;20256;-61
2022/01/26 13:29:51;;;;;;;8.90;7.30;;;17.70;52.10;;;;;;5072916;28;20227;-62
2022/01/26 13:32:54;;;;;;;9.32;7.75;;;17.70;52.10;;;;;;5072403;28;20170;-63
2022/01/26 13:35:34;;;;;;;9.18;6.95;;;17.70;52.30;;;;;;5072614;28;20684;-63
2022/01/26 13:40:50;;;;;;;9.52;7.00;;;17.80;52.40;;;;;;5051456;28;20261;-62
2022/01/26 13:44:00;;;;;;;9.43;6.65;;;17.90;52.40;;;;;;5052154;28;20210;-63
2022/01/26 13:54:29;;;;;;;7.88;6.90;;;18.60;51.30;;;;;;5051073;28;20191;-63
2022/01/26 13:59:43;;;;;;;7.60;6.80;;;18.80;50.70;;;;;;5051944;28;20181;-63
2022/01/26 14:02:08;;;;;;;9.52;6.78;;;18.90;50.70;;;;;;5051153;28;20228;-64
2022/01/26 14:04:34;;;;;;;9.88;6.15;;;18.90;50.50;;;;;;5051712;28;20689;-64
2022/01/26 14:07:00;;;;;;;7.20;6.50;;;19.00;50.50;;;;;;5051402;28;20175;-64
2022/01/26 14:09:25;;;;;;;11.40;7.28;;;19.00;50.30;;;;;;5051744;28;20220;-63
2022/01/26 14:11:52;;;;;;;7.45;6.32;;;19.10;50.40;;;;;;5051937;28;20167;-63
2022/01/26 14:14:25;;;;;;;7.43;5.93;;;19.10;50.30;;;;;;5051133;28;20209;-63
2022/01/26 14:16:57;;;;;;;8.52;6.05;;;19.10;50.20;;;;;;5051630;28;20175;-62
2022/01/26 14:19:32;;;;;;;6.90;6.20;;;19.20;50.10;;;;;;5051501;28;20701;-63
2022/01/26 14:25:06;;;;;;;8.35;5.93;;;19.20;50.10;;;;;;5051352;28;20625;-62
2022/01/26 14:27:41;;;;;;;7.82;6.03;;;19.20;50.10;;;;;;5051498;28;20175;-63
2022/01/26 14:41:02;;;;;;;6.97;6.28;;;19.20;50.00;;;;;;5049395;28;20195;-64
2022/01/26 14:53:00;;;;;;;6.50;5.80;;;19.30;50.00;;;;;;5051096;28;20344;-63
2022/01/26 15:29:54;;;;;;;6.53;5.68;;;19.30;50.20;;;;;;5051128;28;20320;-62
2022/01/26 15:30:12;;;;;;;6.85;5.43;;;19.30;50.30;;;;;;5051302;28;20251;-62
2022/01/26 15:33:17;;;;;;;6.85;5.85;;;19.20;50.30;;;;;;5051687;28;20187;-62
2022/01/26 15:49:20;;;;;;;6.75;5.47;;;19.10;50.60;;;;;;5054342;28;20266;-62
2022/01/26 16:07:41;;;;;;;6.72;4.93;;;19.00;51.40;;;;;;5053446;28;20254;-64
2022/01/26 16:21:12;;;;;;;6.13;5.05;;;18.90;51.20;;;;;;5053464;28;20178;-64
2022/01/26 17:34:29;;;;;;;5.35;4.57;;;18.90;50.90;;;;;;5072395;28;20695;-62
2022/01/26 17:37:45;;;;;;;5.38;4.88;;;18.90;50.90;;;;;;5071938;28;20188;-60
2022/01/26 17:47:06;;;;;;;12.70;8.15;;;18.70;50.70;;;;;;5051574;28;20270;-60
2022/01/26 18:07:11;;;;;;;8.90;7.13;;;18.70;51.40;;;;;;5052075;28;20174;-59
2022/01/26 18:46:48;;;;;;;7.47;6.70;;;19.00;50.60;;;;;;5051843;28;20182;-59
2022/01/26 18:49:25;;;;;;;9.35;7.35;;;18.90;50.60;;;;;;5051084;28;20187;-59